Silver Spring, MD (20901)

8:40 PM EDT on September 30, 2014 (GMT -0400)
Burnt Mills | Change Station
CLOSE
Current Station
Personal Weather Station
Location: Silver Spring, MD
Elevation: 374 ft
Nearby Weather Stations

Elev 374 ft 39.04 °N, 77.01 °W | Updated 12 minutes ago

Clear
Clear
63.5 °F
Feels Like 63.5 °F
N
0.0
Wind Variable Wind from South
Gusts 1.0 mph

Today
High -- | Low -- °F
--% Chance of Precip.
Yesterday
High -- | Low -- °F
Precip. -- in
7:03 AM 6:52 PM
Waxing Crescent, 41% visible
Pressure 29.90 in
Visibility 10.0 miles
Clouds Clear
Dew Point 60 °F
Humidity 89%
Rainfall 0.00 in
Snow Depth Not available.
UV 0 out of 12
Pollen 2.90 out of 12
Air Quality Not available.
Flu Activity Not available.
METAR KCGS 010025Z AUTO 00000KT 10SM CLR 18/16 A2990 RMK AO1

More Conditions Fewer Conditions

Pressure 29.90 in
Visibility 10.0 miles
Clouds Clear
Dew Point 60 °F
Humidity 89%
Rainfall 0.00 in
Snow Depth Not available.
UV 0 out of 12
Pollen 2.90 out of 12
Air Quality Not available.
Flu Activity Not available.
METAR KCGS 010025Z AUTO 00000KT 10SM CLR 18/16 A2990 RMK AO1

More Conditions Fewer Conditions

Nowcast | as of 7:52 PM EDT on September 30, 2014

At 748 PM EDT...Doppler radar detected a line of showers and thunderstorms. These showers and thunderstorms were located along a line extending from 10 miles northwest of Thurmont to Wolfsville to Brunswick to Berryville to 9 miles northeast of Luray to Timberville...moving southeast at 10 mph. Locations that likely will be impacted include Quicksburg... Cascade...Brunswick...Rileyville...Highfield...Braddock Heights... Glen Echo...Sabillasville...Jefferson and Broadway. Gusty winds of 30 to 40 mph can be expected. Rain amounts up to one half inch can be expected. Lat...Lon 3968 7728 3938 7720 3920 7734 3892 7768 3864 7806 3847 7862 3867 7898 3884 7842 3912 7804 3940 7770 3959 7755 3972 7759 3973 7737 time...Mot...loc 2351z 306deg 10kt 3973 7752 3954 7748 3935 7763 3909 7799 3878 7838 3867 7883

×

10-Day Weather Forecast

Almanac

Astronomy

Sep. 30, 2014 Rise Set
Actual Time 7:03 AM EDT 6:52 PM EDT
Civil Twilight 6:36 AM EDT 7:18 PM EDT
Nautical Twilight 6:05 AM EDT 7:49 PM EDT
Astronomical Twilight 5:34 AM EDT 8:21 PM EDT
Moon 1:07 PM EDT (9/30) 11:22 PM EDT (9/30)
Length of Visible Light 12h 42m
Length of Day
11h 49m
Tomorrow will be 2m 31s shorter.
Waxing Crescent, 41% of the Moon is Illuminated
Today
Waxing Crescent
Oct 1
First Quarter
Oct 8
Full
Oct 15
Last Quarter
Oct 23
New

Today's Extremes

State Highs State Lows

Community

WunderPhotos

Upload Photos

1,757,801 photos uploaded!

Nearby

Snow Depth

Station Depth Elevation
No new snow has been reported.

Earthquake Activity

City Distance Mag. Time & Date
No recent earthquake activity has been reported nearby.
Minimum magnitude displayed is 2.5.

Coastal Water Temperatures

Place Temperature
Washington, DC 71.1 °F
Baltimore, MD 75.0 °F
Solomons Island, MD 73.9 °F

Nearby Weather Stations